Map

Track Data

SID SEASON NUMBER BASIN SUBBASIN NAME ISO_TIME NATURE LAT LON WMO_WIND WMO_PRES WMO_AGENCY TRACK_TYPE DIST2LAND LANDFALL IFLAG USA_AGENCY USA_ATCF_ID USA_LAT USA_LON USA_RECORD USA_STATUS USA_WIND USA_PRES USA_SSHS USA_R34_NE USA_R34_SE USA_R34_SW USA_R34_NW USA_R50_NE USA_R50_SE USA_R50_SW USA_R50_NW USA_R64_NE USA_R64_SE USA_R64_SW USA_R64_NW USA_POCI USA_ROCI USA_RMW USA_EYE TOKYO_LAT TOKYO_LON TOKYO_GRADE TOKYO_WIND TOKYO_PRES TOKYO_R50_DIR TOKYO_R50_LONG TOKYO_R50_SHORT TOKYO_R30_DIR TOKYO_R30_LONG TOKYO_R30_SHORT TOKYO_LAND CMA_LAT CMA_LON CMA_CAT CMA_WIND CMA_PRES HKO_LAT HKO_LON HKO_CAT HKO_WIND HKO_PRES NEWDELHI_LAT NEWDELHI_LON NEWDELHI_GRADE NEWDELHI_WIND NEWDELHI_PRES NEWDELHI_CI NEWDELHI_DP NEWDELHI_POCI REUNION_LAT REUNION_LON REUNION_TYPE REUNION_WIND REUNION_PRES REUNION_TNUM REUNION_CI REUNION_RMW REUNION_R34_NE REUNION_R34_SE REUNION_R34_SW REUNION_R34_NW REUNION_R50_NE REUNION_R50_SE REUNION_R50_SW REUNION_R50_NW REUNION_R64_NE REUNION_R64_SE REUNION_R64_SW REUNION_R64_NW BOM_LAT BOM_LON BOM_TYPE BOM_WIND BOM_PRES BOM_TNUM BOM_CI BOM_RMW BOM_R34_NE BOM_R34_SE BOM_R34_SW BOM_R34_NW BOM_R50_NE BOM_R50_SE BOM_R50_SW BOM_R50_NW BOM_R64_NE BOM_R64_SE BOM_R64_SW BOM_R64_NW BOM_ROCI BOM_POCI BOM_EYE BOM_POS_METHOD BOM_PRES_METHOD NADI_LAT NADI_LON NADI_CAT NADI_WIND NADI_PRES WELLINGTON_LAT WELLINGTON_LON WELLINGTON_WIND WELLINGTON_PRES DS824_LAT DS824_LON DS824_STAGE DS824_WIND DS824_PRES TD9636_LAT TD9636_LON TD9636_STAGE TD9636_WIND TD9636_PRES TD9635_LAT TD9635_LON TD9635_WIND TD9635_PRES TD9635_ROCI NEUMANN_LAT NEUMANN_LON NEUMANN_CLASS NEUMANN_WIND NEUMANN_PRES MLC_LAT MLC_LON MLC_CLASS MLC_WIND MLC_PRES USA_GUST BOM_GUST BOM_GUST_PER REUNION_GUST REUNION_GUST_PER USA_SEAHGT USA_SEARAD_NE USA_SEARAD_SE USA_SEARAD_SW USA_SEARAD_NW STORM_SPEED STORM_DIR
1997194N31286 1997 50 NA NA CLAUDETTE 1997-07-13 00:00:00 ET 31.3000 -73.6000 25 1012 hurdat_atl main 465 465 O_____________ hurdat_atl AL041997 31.3000 -73.6000 EX 25 1012 -4 3 102
1997194N31286 1997 50 NA NA CLAUDETTE 1997-07-13 03:00:00 ET 31.2700 -73.4424 main 476 476 P_____________ AL041997 31.2700 -73.4424 EX 25 1011 -4 3 90
1997194N31286 1997 50 NA NA CLAUDETTE 1997-07-13 06:00:00 TS 31.3000 -73.3000 25 1011 hurdat_atl main 482 479 O_____________ hurdat_atl AL041997 31.3000 -73.3000 TD 25 1011 -1 3 55
1997194N31286 1997 50 NA NA CLAUDETTE 1997-07-13 09:00:00 TS 31.4275 -73.1851 main 479 468 P_____________ AL041997 31.4275 -73.1851 TD 27 1009 -1 3 30
1997194N31286 1997 50 NA NA CLAUDETTE 1997-07-13 12:00:00 TS 31.6000 -73.1000 30 1008 hurdat_atl main 468 459 O_____________ hurdat_atl AL041997 31.6000 -73.1000 TD 30 1008 -1 3 21
1997194N31286 1997 50 NA NA CLAUDETTE 1997-07-13 15:00:00 TS 31.7425 -73.0350 main 466 450 P_____________ AL041997 31.7425 -73.0350 TD 35 1006 0 3 16
1997194N31286 1997 50 NA NA CLAUDETTE 1997-07-13 18:00:00 TS 31.9000 -73.0000 40 1004 hurdat_atl main 450 434 O_____________ hurdat_atl AL041997 31.9000 -73.0000 TS 40 1004 0 4 6
1997194N31286 1997 50 NA NA CLAUDETTE 1997-07-13 21:00:00 TS 32.0925 -72.9999 main 434 420 P_____________ AL041997 32.0925 -72.9999 TS 40 1003 0 4 0
1997194N31286 1997 50 NA NA CLAUDETTE 1997-07-14 00:00:00 TS 32.3000 -73.0000 40 1003 hurdat_atl main 420 405 O_____________ hurdat_atl AL041997 32.3000 -73.0000 TS 40 1003 0 4 7
1997194N31286 1997 50 NA NA CLAUDETTE 1997-07-14 03:00:00 TS 32.4775 -72.9649 main 405 398 P_____________ AL041997 32.4775 -72.9649 TS 40 1003 0 4 12
1997194N31286 1997 50 NA NA CLAUDETTE 1997-07-14 06:00:00 TS 32.7000 -72.9000 40 1003 hurdat_atl main 398 384 O_____________ hurdat_atl AL041997 32.7000 -72.9000 TS 40 1003 0 6 14
1997194N31286 1997 50 NA NA CLAUDETTE 1997-07-14 09:00:00 TS 33.0350 -72.8002 main 385 367 P_____________ AL041997 33.0350 -72.8002 TS 40 1003 0 7 13
1997194N31286 1997 50 NA NA CLAUDETTE 1997-07-14 12:00:00 TS 33.4000 -72.7000 40 1004 hurdat_atl main 367 346 O_____________ hurdat_atl AL041997 33.4000 -72.7000 TS 40 1004 0 7 8
1997194N31286 1997 50 NA NA CLAUDETTE 1997-07-14 15:00:00 TS 33.6848 -72.6941 main 346 331 P_____________ AL041997 33.6848 -72.6941 TS 40 1004 0 6 8
1997194N31286 1997 50 NA NA CLAUDETTE 1997-07-14 18:00:00 TS 34.0000 -72.6000 40 1005 hurdat_atl main 331 324 O_____________ hurdat_atl AL041997 34.0000 -72.6000 TS 40 1005 0 8 25
1997194N31286 1997 50 NA NA CLAUDETTE 1997-07-14 21:00:00 TS 34.4427 -72.2606 main 329 329 P_____________ AL041997 34.4427 -72.2606 TS 37 1005 0 11 36
1997194N31286 1997 50 NA NA CLAUDETTE 1997-07-15 00:00:00 TS 34.9000 -71.8000 35 1005 hurdat_atl main 349 349 O_____________ hurdat_atl AL041997 34.9000 -71.8000 TS 35 1005 0 11 40
1997194N31286 1997 50 NA NA CLAUDETTE 1997-07-15 03:00:00 TS 35.2717 -71.4090 main 374 374 P_____________ AL041997 35.2717 -71.4090 TS 35 1005 0 10 46
1997194N31286 1997 50 NA NA CLAUDETTE 1997-07-15 06:00:00 TS 35.6000 -70.9000 35 1006 hurdat_atl main 414 414 O_____________ hurdat_atl AL041997 35.6000 -70.9000 TS 35 1006 0 12 57
1997194N31286 1997 50 NA NA CLAUDETTE 1997-07-15 09:00:00 TS 35.9220 -70.1899 main 476 476 P_____________ AL041997 35.9220 -70.1899 TS 37 1007 0 14 65
1997194N31286 1997 50 NA NA CLAUDETTE 1997-07-15 12:00:00 TS 36.2000 -69.3000 40 1009 hurdat_atl main 558 558 O_____________ hurdat_atl AL041997 36.2000 -69.3000 TS 40 1009 0 16 71
1997194N31286 1997 50 NA NA CLAUDETTE 1997-07-15 15:00:00 TS 36.4371 -68.3026 main 604 596 P_____________ AL041997 36.4371 -68.3026 TS 37 1009 0 17 77
1997194N31286 1997 50 NA NA CLAUDETTE 1997-07-15 18:00:00 TS 36.6000 -67.2000 35 1009 hurdat_atl main 616 616 O_____________ hurdat_atl AL041997 36.6000 -67.2000 TS 35 1009 0 18 82
1997194N31286 1997 50 NA NA CLAUDETTE 1997-07-15 21:00:00 TS 36.6870 -66.0571 main 649 649 P_____________ AL041997 36.6870 -66.0571 TS 32 1009 -1 18 87
1997194N31286 1997 50 NA NA CLAUDETTE 1997-07-16 00:00:00 TS 36.7000 -64.9000 30 1009 hurdat_atl main 708 708 O_____________ hurdat_atl AL041997 36.7000 -64.9000 TD 30 1009 -1 18 90
1997194N31286 1997 50 NA NA CLAUDETTE 1997-07-16 03:00:00 TS 36.6788 -63.7926 main 767 767 P_____________ AL041997 36.6788 -63.7926 TD 32 1007 -1 18 93
1997194N31286 1997 50 NA NA CLAUDETTE 1997-07-16 06:00:00 TS 36.6000 -62.7000 35 1006 hurdat_atl main 798 798 O_____________ hurdat_atl AL041997 36.6000 -62.7000 TS 35 1006 0 17 97
1997194N31286 1997 50 NA NA CLAUDETTE 1997-07-16 09:00:00 TS 36.4706 -61.6303 main 839 839 P_____________ AL041997 36.4706 -61.6303 TS 35 1006 0 18 100
1997194N31286 1997 50 NA NA CLAUDETTE 1997-07-16 12:00:00 TS 36.3000 -60.5000 35 1007 hurdat_atl main 898 898 O_____________ hurdat_atl AL041997 36.3000 -60.5000 TS 35 1007 0 20 101
1997194N31286 1997 50 NA NA CLAUDETTE 1997-07-16 15:00:00 TS 36.1087 -59.2386 main 973 973 P_____________ AL041997 36.1087 -59.2386 TS 32 1008 -1 21 101
1997194N31286 1997 50 NA NA CLAUDETTE 1997-07-16 18:00:00 ET 35.9000 -57.9000 30 1009 hurdat_atl main 1054 O_____________ hurdat_atl AL041997 35.9000 -57.9000 EX 30 1009 -4 22 101

About IBTrACS Database

This database is a web-friendly format of International Best Track Archive for Climate Stewardship (IBTrACS), a global best track data archive curated by NOAA dating back to 1842.

Updated: 2021-10-08